createdAt,value
2022-10-21T00:00:40.325Z,8.01
2022-10-21T00:03:45.173Z,8.00
2022-10-21T00:06:50.308Z,8.03
2022-10-21T00:09:54.789Z,8.01
2022-10-21T00:12:59.520Z,7.97
2022-10-21T00:16:09.139Z,7.99
2022-10-21T00:19:14.157Z,8.04
2022-10-21T00:22:19.321Z,8.06
2022-10-21T00:25:24.589Z,8.18
2022-10-21T00:28:29.952Z,8.30
2022-10-21T00:31:36.395Z,8.34
2022-10-21T00:34:43.228Z,8.36
2022-10-21T00:37:48.006Z,8.37
2022-10-21T00:40:52.980Z,8.36
2022-10-21T00:44:01.546Z,8.34
2022-10-21T00:47:11.006Z,8.37
2022-10-21T00:50:29.042Z,8.39
2022-10-21T00:53:34.763Z,8.37
2022-10-21T00:56:40.886Z,8.37
2022-10-21T00:59:49.238Z,8.33
2022-10-21T01:02:55.254Z,8.35
2022-10-21T01:06:03.711Z,8.40
2022-10-21T01:09:08.824Z,8.45
2022-10-21T01:12:34.394Z,8.44
2022-10-21T01:15:43.399Z,8.51
2022-10-21T01:18:54.163Z,8.50
2022-10-21T01:22:04.147Z,8.50
2022-10-21T01:25:27.445Z,8.50
2022-10-21T01:28:42.467Z,8.50
2022-10-21T01:31:51.807Z,8.53
2022-10-21T01:35:03.318Z,8.52
2022-10-21T01:38:14.866Z,8.49
2022-10-21T01:41:28.492Z,8.50
2022-10-21T01:44:37.662Z,8.45
2022-10-21T01:47:47.517Z,8.46
2022-10-21T01:50:57.710Z,8.48
2022-10-21T01:54:06.414Z,8.52
2022-10-21T01:57:14.352Z,8.49
2022-10-21T02:00:19.777Z,8.54
2022-10-21T02:03:30.159Z,8.53
2022-10-21T02:06:35.211Z,8.53
2022-10-21T02:09:39.883Z,8.51
2022-10-21T02:12:47.054Z,8.52
2022-10-21T02:15:52.724Z,8.49
2022-10-21T02:19:01.142Z,8.47
2022-10-21T02:22:08.010Z,8.39
2022-10-21T02:25:18.482Z,8.40
2022-10-21T02:28:23.178Z,8.34
2022-10-21T02:31:51.632Z,8.33
2022-10-21T02:35:15.239Z,8.29
2022-10-21T02:38:28.249Z,8.25
2022-10-21T02:41:34.583Z,8.22
2022-10-21T02:44:39.435Z,8.17
2022-10-21T02:47:47.747Z,8.14
2022-10-21T02:50:54.189Z,8.11
2022-10-21T02:53:59.179Z,8.05
2022-10-21T02:57:03.865Z,8.00
2022-10-21T03:00:10.127Z,7.96
2022-10-21T03:03:17.124Z,7.91
2022-10-21T03:06:23.098Z,7.91
2022-10-21T03:09:27.691Z,7.93
2022-10-21T03:12:32.462Z,7.93
2022-10-21T03:15:37.162Z,7.91
2022-10-21T03:18:41.793Z,7.90
2022-10-21T03:21:47.754Z,7.84
2022-10-21T03:24:52.605Z,7.81
2022-10-21T03:27:57.795Z,7.85
2022-10-21T03:31:02.514Z,7.86
2022-10-21T03:34:07.401Z,7.87
2022-10-21T03:37:14.592Z,7.90
2022-10-21T03:40:19.439Z,7.79
2022-10-21T03:43:24.072Z,7.87
2022-10-21T03:46:28.853Z,7.89
2022-10-21T03:52:45.092Z,7.85
2022-10-21T03:55:56.338Z,7.84
2022-10-21T03:59:01.443Z,7.81
2022-10-21T04:02:06.507Z,7.77
2022-10-21T04:05:13.208Z,7.72
2022-10-21T04:08:19.422Z,7.71
2022-10-21T04:11:24.038Z,7.70
2022-10-21T04:14:29.032Z,7.60
2022-10-21T04:17:34.099Z,7.64
2022-10-21T04:20:38.855Z,7.63
2022-10-21T04:23:44.892Z,7.59
2022-10-21T04:26:49.683Z,7.59
2022-10-21T04:29:54.652Z,7.54
2022-10-21T04:32:59.370Z,7.58
2022-10-21T04:36:04.253Z,7.56
2022-10-21T04:39:10.547Z,7.57
2022-10-21T04:42:15.797Z,7.54
2022-10-21T04:45:20.593Z,7.56
2022-10-21T04:48:25.764Z,7.55
2022-10-21T04:54:41.926Z,7.50
2022-10-21T04:57:46.542Z,7.50
2022-10-21T05:00:52.081Z,7.48
2022-10-21T05:03:56.955Z,7.41
2022-10-21T05:07:01.782Z,7.44
2022-10-21T05:10:09.416Z,7.39
2022-10-21T05:13:14.878Z,7.43
2022-10-21T05:16:19.651Z,7.34
2022-10-21T05:19:27.669Z,7.33
2022-10-21T05:22:35.056Z,7.31
2022-10-21T05:25:41.226Z,7.28
2022-10-21T05:28:46.142Z,7.31
2022-10-21T05:31:50.894Z,7.33
2022-10-21T05:34:55.603Z,7.31
2022-10-21T05:38:00.599Z,7.31
2022-10-21T05:41:06.963Z,7.32
2022-10-21T05:44:13.110Z,7.25
2022-10-21T05:47:17.842Z,7.29
2022-10-21T05:50:22.766Z,7.29
2022-10-21T05:53:27.585Z,7.35
2022-10-21T05:56:33.959Z,7.33
2022-10-21T05:59:38.628Z,7.32
2022-10-21T06:02:43.295Z,7.32
2022-10-21T06:05:48.205Z,7.29
2022-10-21T06:08:53.055Z,7.29
2022-10-21T06:11:59.137Z,7.28
2022-10-21T06:15:03.842Z,7.31
2022-10-21T06:18:09.459Z,7.27
2022-10-21T06:21:14.459Z,7.30
2022-10-21T06:24:19.190Z,7.34
2022-10-21T06:27:25.223Z,7.36
2022-10-21T06:30:30.329Z,7.32
2022-10-21T06:33:35.755Z,7.30
2022-10-21T06:36:40.462Z,7.36
2022-10-21T06:39:45.213Z,7.39
2022-10-21T06:42:51.942Z,7.36
2022-10-21T06:46:02.132Z,7.31
2022-10-21T06:49:07.234Z,7.40
2022-10-21T06:52:12.710Z,7.38
2022-10-21T06:55:17.611Z,7.39
2022-10-21T06:58:23.906Z,7.39
2022-10-21T07:01:41.753Z,7.45
2022-10-21T07:04:58.269Z,7.51
2022-10-21T07:08:02.953Z,7.50
2022-10-21T07:11:08.879Z,7.50
2022-10-21T07:14:17.850Z,7.55
2022-10-21T07:17:22.715Z,7.58
2022-10-21T07:20:27.545Z,7.65
2022-10-21T07:23:32.195Z,7.67
2022-10-21T07:26:36.890Z,7.63
2022-10-21T07:29:43.190Z,7.62
2022-10-21T07:32:48.166Z,7.68
2022-10-21T07:35:53.270Z,7.72
2022-10-21T07:39:02.374Z,7.75
2022-10-21T07:42:07.145Z,7.78
2022-10-21T07:45:14.880Z,7.80
2022-10-21T07:48:20.554Z,7.80
2022-10-21T07:51:28.718Z,7.85
2022-10-21T07:54:35.974Z,7.90
2022-10-21T07:57:40.876Z,7.92
2022-10-21T08:00:47.341Z,7.90
2022-10-21T08:03:54.380Z,7.85
2022-10-21T08:06:59.478Z,7.93
2022-10-21T08:10:04.611Z,7.94
2022-10-21T08:13:11.270Z,7.93
2022-10-21T08:16:17.481Z,7.93
2022-10-21T08:19:29.666Z,7.93
2022-10-21T08:22:34.613Z,7.97
2022-10-21T08:25:39.937Z,7.99
2022-10-21T08:28:45.477Z,8.00
2022-10-21T08:31:53.497Z,7.99
2022-10-21T08:34:58.253Z,8.02
2022-10-21T08:38:03.100Z,8.02
2022-10-21T08:41:22.449Z,8.08
2022-10-21T08:44:36.458Z,8.07
2022-10-21T08:47:46.749Z,8.12
2022-10-21T08:50:52.825Z,8.16
2022-10-21T08:54:01.401Z,8.23
2022-10-21T08:57:06.043Z,8.21
2022-10-21T09:00:18.500Z,8.27
2022-10-21T09:03:31.523Z,8.30
2022-10-21T09:06:40.667Z,8.36
2022-10-21T09:09:50.759Z,8.40
2022-10-21T09:13:13.408Z,8.46
2022-10-21T09:16:24.668Z,8.53
2022-10-21T09:19:41.159Z,8.61
2022-10-21T09:22:56.149Z,8.66
2022-10-21T09:26:04.459Z,8.75
2022-10-21T09:29:31.580Z,8.83
2022-10-21T09:32:39.473Z,8.86
2022-10-21T09:35:51.688Z,8.95
2022-10-21T09:39:02.132Z,9.02
2022-10-21T09:42:12.425Z,9.09
2022-10-21T09:45:34.187Z,9.12
2022-10-21T09:49:16.352Z,9.18
2022-10-21T09:52:14.296Z,9.29
2022-10-21T09:55:19.278Z,9.46
2022-10-21T09:58:27.773Z,9.51
2022-10-21T10:01:32.749Z,9.65
2022-10-21T10:04:37.793Z,9.69
2022-10-21T10:07:43.816Z,9.75
2022-10-21T10:10:48.539Z,9.85
2022-10-21T10:13:54.457Z,9.86
2022-10-21T10:17:18.968Z,9.90
2022-10-21T10:20:23.987Z,9.98
2022-10-21T10:23:30.142Z,10.07
2022-10-21T10:26:38.130Z,10.13
2022-10-21T10:29:44.140Z,10.20
2022-10-21T10:32:49.894Z,10.21
2022-10-21T10:35:57.463Z,10.27
2022-10-21T10:39:07.658Z,10.32
2022-10-21T10:42:17.918Z,10.37
2022-10-21T10:45:24.006Z,10.41
2022-10-21T10:48:36.258Z,10.41
2022-10-21T10:51:42.607Z,10.37
2022-10-21T10:55:05.967Z,10.41
2022-10-21T10:58:17.546Z,10.41
2022-10-21T11:01:31.500Z,10.51
2022-10-21T11:04:39.882Z,10.49
2022-10-21T11:07:47.691Z,10.52
2022-10-21T11:10:57.176Z,10.52
2022-10-21T11:14:02.008Z,10.52
2022-10-21T11:17:11.923Z,10.57
2022-10-21T11:20:24.145Z,10.57
2022-10-21T11:23:52.340Z,10.60
2022-10-21T11:27:04.528Z,10.64
2022-10-21T11:30:14.771Z,10.67
2022-10-21T11:33:26.998Z,10.68
2022-10-21T11:36:39.411Z,10.68
2022-10-21T11:39:52.716Z,10.68
2022-10-21T11:43:07.074Z,10.68
2022-10-21T11:46:16.921Z,10.72
2022-10-21T11:49:49.362Z,10.65
2022-10-21T11:53:12.841Z,10.74
2022-10-21T11:56:25.781Z,10.76
2022-10-21T11:59:52.491Z,10.80
2022-10-21T12:03:20.170Z,10.68
2022-10-21T12:06:34.271Z,10.77
2022-10-21T12:09:43.905Z,10.81
2022-10-21T12:12:51.100Z,10.88
2022-10-21T12:16:00.958Z,10.92
2022-10-21T12:19:07.170Z,10.95
2022-10-21T12:22:12.517Z,11.01
2022-10-21T12:25:28.143Z,11.04
2022-10-21T12:28:37.210Z,11.10
2022-10-21T12:31:50.231Z,11.06
2022-10-21T12:34:55.261Z,11.05
2022-10-21T12:38:21.422Z,11.12
2022-10-21T12:41:34.459Z,11.12
2022-10-21T12:44:40.050Z,11.19
2022-10-21T12:47:46.982Z,11.21
2022-10-21T12:50:58.523Z,11.22
2022-10-21T12:54:09.373Z,11.23
2022-10-21T12:57:27.469Z,11.22
2022-10-21T13:00:58.305Z,11.27
2022-10-21T13:04:04.725Z,11.22
2022-10-21T13:07:39.425Z,11.22
2022-10-21T13:11:19.920Z,11.23
2022-10-21T13:14:35.443Z,11.29
2022-10-21T13:17:53.247Z,11.25
2022-10-21T13:21:00.570Z,11.27
2022-10-21T13:24:24.695Z,11.26
2022-10-21T13:30:40.163Z,11.23
2022-10-21T13:33:53.447Z,11.20
2022-10-21T13:36:59.323Z,11.24
2022-10-21T13:40:08.058Z,11.16
2022-10-21T13:43:18.263Z,11.23
2022-10-21T13:46:27.203Z,11.18
2022-10-21T13:49:34.393Z,11.14
2022-10-21T13:52:39.195Z,11.15
2022-10-21T13:55:43.879Z,11.16
2022-10-21T13:58:50.742Z,11.05
2022-10-21T14:01:57.465Z,11.07
2022-10-21T14:05:02.342Z,11.05
2022-10-21T14:08:18.633Z,11.02
2022-10-21T14:11:27.554Z,11.06
2022-10-21T14:14:36.055Z,10.99
2022-10-21T14:17:44.779Z,11.03
2022-10-21T14:20:50.119Z,10.99
2022-10-21T14:23:55.094Z,10.95
2022-10-21T14:26:59.877Z,11.02
2022-10-21T14:30:10.459Z,11.02
2022-10-21T14:33:22.778Z,10.95
2022-10-21T14:36:28.772Z,10.93
2022-10-21T14:39:34.470Z,10.90
2022-10-21T14:42:41.683Z,10.85
2022-10-21T14:45:50.382Z,10.80
2022-10-21T14:48:59.645Z,10.73
2022-10-21T14:52:06.894Z,10.76
2022-10-21T14:55:17.141Z,10.72
2022-10-21T14:58:25.513Z,10.64
2022-10-21T15:01:32.702Z,10.58
2022-10-21T15:04:44.974Z,10.52
2022-10-21T15:07:49.714Z,10.57
2022-10-21T15:11:23.303Z,10.46
2022-10-21T15:14:32.101Z,10.45
2022-10-21T15:17:38.692Z,10.48
2022-10-21T15:20:56.138Z,10.40
2022-10-21T15:24:01.558Z,10.41
2022-10-21T15:27:07.351Z,10.35
2022-10-21T15:30:20.194Z,10.38
2022-10-21T15:33:27.186Z,10.32
2022-10-21T15:36:31.887Z,10.32
2022-10-21T15:39:36.733Z,10.22
2022-10-21T15:42:42.211Z,10.20
2022-10-21T15:45:47.168Z,10.28
2022-10-21T15:48:53.333Z,10.20
2022-10-21T15:51:58.100Z,10.22
2022-10-21T15:55:02.719Z,10.24
2022-10-21T15:58:07.483Z,10.24
2022-10-21T16:01:13.906Z,10.21
2022-10-21T16:04:20.579Z,10.14
2022-10-21T16:07:32.611Z,10.04
2022-10-21T16:10:38.279Z,10.06
2022-10-21T16:13:42.942Z,10.08
2022-10-21T16:16:50.463Z,10.09
2022-10-21T16:19:56.520Z,10.06
2022-10-21T16:23:03.098Z,9.97
2022-10-21T16:26:14.842Z,10.00
2022-10-21T16:29:22.186Z,10.01
2022-10-21T16:32:27.114Z,9.98
2022-10-21T16:35:33.307Z,10.01
2022-10-21T16:38:38.131Z,10.07
2022-10-21T16:41:42.925Z,9.97
2022-10-21T16:44:49.773Z,9.99
2022-10-21T16:47:57.577Z,9.99
2022-10-21T16:51:03.590Z,10.02
2022-10-21T16:54:08.374Z,10.03
2022-10-21T16:57:12.990Z,9.98
2022-10-21T17:00:18.992Z,9.99
2022-10-21T17:03:24.311Z,9.97
2022-10-21T17:06:30.363Z,9.96
2022-10-21T17:09:35.099Z,9.95
2022-10-21T17:12:41.049Z,9.96
2022-10-21T17:15:46.003Z,9.97
2022-10-21T17:18:52.713Z,9.96
2022-10-21T17:21:58.788Z,9.93
2022-10-21T17:25:03.433Z,9.96
2022-10-21T17:28:08.928Z,9.84
2022-10-21T17:31:17.046Z,9.82
2022-10-21T17:34:29.269Z,9.79
2022-10-21T17:37:35.386Z,9.77
2022-10-21T17:40:40.322Z,9.75
2022-10-21T17:43:45.121Z,9.72
2022-10-21T17:46:54.382Z,9.68
2022-10-21T17:49:59.521Z,9.69
2022-10-21T17:53:05.572Z,9.66
2022-10-21T17:56:13.198Z,9.66
2022-10-21T17:59:17.912Z,9.63
2022-10-21T18:02:22.881Z,9.68
2022-10-21T18:05:27.509Z,9.69
2022-10-21T18:08:33.936Z,9.69
2022-10-21T18:11:38.862Z,9.69
2022-10-21T18:14:44.014Z,9.72
2022-10-21T18:17:48.744Z,9.73
2022-10-21T18:20:53.691Z,9.75
2022-10-21T18:23:59.982Z,9.70
2022-10-21T18:27:06.470Z,9.71
2022-10-21T18:30:14.133Z,9.68
2022-10-21T18:33:19.096Z,9.68
2022-10-21T18:36:24.387Z,9.68
2022-10-21T18:39:30.486Z,9.69
2022-10-21T18:42:35.193Z,9.69
2022-10-21T18:45:40.008Z,9.68
2022-10-21T18:48:44.763Z,9.67
2022-10-21T18:51:49.453Z,9.72
2022-10-21T18:54:55.466Z,9.69
2022-10-21T18:58:00.191Z,9.72
2022-10-21T19:01:06.059Z,9.68
2022-10-21T19:04:11.019Z,9.73
2022-10-21T19:07:16.441Z,9.67
2022-10-21T19:10:23.410Z,9.65
2022-10-21T19:13:28.427Z,9.72
2022-10-21T19:16:33.094Z,9.68
2022-10-21T19:19:39.578Z,9.70
2022-10-21T19:22:44.779Z,9.70
2022-10-21T19:25:50.885Z,9.74
2022-10-21T19:29:01.253Z,9.71
2022-10-21T19:32:06.222Z,9.71
2022-10-21T19:35:12.721Z,9.71
2022-10-21T19:38:21.003Z,9.67
2022-10-21T19:41:32.732Z,9.71
2022-10-21T19:44:37.654Z,9.69
2022-10-21T19:47:42.654Z,9.71
2022-10-21T19:50:47.678Z,9.68
2022-10-21T19:53:53.756Z,9.67
2022-10-21T19:56:59.813Z,9.63
2022-10-21T20:00:06.353Z,9.54
2022-10-21T20:03:15.893Z,9.54
2022-10-21T20:06:23.100Z,9.50
2022-10-21T20:09:27.814Z,9.51
2022-10-21T20:12:34.066Z,9.49
2022-10-21T20:15:38.957Z,9.46
2022-10-21T20:18:43.653Z,9.46
2022-10-21T20:21:49.425Z,9.50
2022-10-21T20:24:55.191Z,9.46
2022-10-21T20:28:01.346Z,9.46
2022-10-21T20:31:07.982Z,9.52
2022-10-21T20:34:14.286Z,9.53
2022-10-21T20:37:19.438Z,9.52
2022-10-21T20:40:26.749Z,9.45
2022-10-21T20:43:32.978Z,9.40
2022-10-21T20:46:37.881Z,9.41
2022-10-21T20:49:42.564Z,9.39
2022-10-21T20:52:47.359Z,9.36
2022-10-21T20:55:55.748Z,9.36
2022-10-21T20:59:02.363Z,9.32
2022-10-21T21:02:07.991Z,9.24
2022-10-21T21:05:12.637Z,9.17
2022-10-21T21:08:18.236Z,9.20
2022-10-21T21:11:23.108Z,9.20
2022-10-21T21:14:29.535Z,9.23
2022-10-21T21:17:34.241Z,9.17
2022-10-21T21:20:39.259Z,9.16
2022-10-21T21:23:46.314Z,9.10
2022-10-21T21:26:51.559Z,9.05
2022-10-21T21:29:57.585Z,9.07
2022-10-21T21:33:02.244Z,9.08
2022-10-21T21:36:08.235Z,9.03
2022-10-21T21:42:20.039Z,8.99
2022-10-21T21:45:26.190Z,8.89
2022-10-21T21:48:32.728Z,8.98
2022-10-21T21:51:38.303Z,8.93
2022-10-21T21:54:42.934Z,8.96
2022-10-21T21:57:47.753Z,8.99
2022-10-21T22:00:53.758Z,9.05
2022-10-21T22:03:59.375Z,9.05
2022-10-21T22:07:04.027Z,9.06
2022-10-21T22:10:09.888Z,9.08
2022-10-21T22:13:15.615Z,9.08
2022-10-21T22:16:24.486Z,9.07
2022-10-21T22:19:29.686Z,9.09
2022-10-21T22:22:35.821Z,9.10
2022-10-21T22:25:40.950Z,9.11
2022-10-21T22:28:46.011Z,9.13
2022-10-21T22:31:52.291Z,9.13
2022-10-21T22:34:56.984Z,9.09
2022-10-21T22:38:01.621Z,9.09
2022-10-21T22:41:09.996Z,9.03
2022-10-21T22:44:17.183Z,9.07
2022-10-21T22:47:23.530Z,9.04
2022-10-21T22:50:28.330Z,9.08
2022-10-21T22:53:33.274Z,9.07
2022-10-21T22:56:37.918Z,9.04
2022-10-21T22:59:44.175Z,9.08
2022-10-21T23:02:50.786Z,9.08
2022-10-21T23:05:55.715Z,9.08
2022-10-21T23:09:01.092Z,9.09
2022-10-21T23:12:06.838Z,9.09
2022-10-21T23:15:13.106Z,9.06
2022-10-21T23:18:19.702Z,9.09
2022-10-21T23:21:24.533Z,9.06
2022-10-21T23:24:29.231Z,9.06
2022-10-21T23:27:34.106Z,9.05
2022-10-21T23:30:40.674Z,9.05
2022-10-21T23:33:46.894Z,9.00
2022-10-21T23:36:52.183Z,9.01
2022-10-21T23:39:56.885Z,8.99
2022-10-21T23:43:01.523Z,9.00
2022-10-21T23:46:06.907Z,8.99
2022-10-21T23:49:13.119Z,9.03
2022-10-21T23:52:17.847Z,9.00
2022-10-21T23:55:22.895Z,9.03
2022-10-21T23:58:27.822Z,9.04
